createdAt,value
2019-02-09T00:01:51.224Z,65.38
2019-02-09T00:07:37.145Z,66.15
2019-02-09T00:10:19.629Z,67.17
2019-02-09T00:13:03.391Z,66.52
2019-02-09T00:16:13.127Z,66.82
2019-02-09T00:18:43.581Z,66.90
2019-02-09T00:21:16.307Z,67.27
2019-02-09T00:24:06.069Z,68.46
2019-02-09T00:29:46.704Z,69.31
2019-02-09T00:32:42.658Z,68.80
2019-02-09T00:35:13.067Z,69.94
2019-02-09T00:38:02.825Z,70.31
2019-02-09T00:40:35.690Z,70.87
2019-02-09T00:43:25.322Z,71.18
2019-02-09T00:45:57.874Z,71.13
2019-02-09T00:48:28.445Z,71.87
2019-02-09T00:51:11.743Z,71.92
2019-02-09T00:53:57.785Z,71.53
2019-02-09T00:56:28.087Z,71.12
2019-02-09T00:58:58.313Z,71.59
2019-02-09T01:01:40.859Z,71.66
2019-02-09T01:04:22.934Z,71.70
2019-02-09T01:09:55.498Z,72.68
2019-02-09T01:12:37.139Z,73.46
2019-02-09T01:15:09.563Z,74.37
2019-02-09T01:17:39.782Z,73.83
2019-02-09T01:20:22.105Z,74.73
2019-02-09T01:23:13.121Z,74.10
2019-02-09T01:26:02.491Z,75.16
2019-02-09T01:29:07.970Z,74.67
2019-02-09T01:31:36.980Z,75.57
2019-02-09T01:34:28.683Z,76.76
2019-02-09T01:36:58.957Z,77.21
2019-02-09T01:39:29.205Z,77.41
2019-02-09T01:45:00.037Z,78.02
2019-02-09T01:47:30.275Z,78.55
2019-02-09T01:50:12.863Z,77.50
2019-02-09T01:52:54.387Z,77.92
2019-02-09T01:58:22.111Z,77.63
2019-02-09T02:01:03.631Z,77.19
2019-02-09T02:03:34.272Z,77.60
2019-02-09T02:06:04.514Z,76.96
2019-02-09T02:08:49.713Z,76.41
2019-02-09T02:11:40.045Z,75.96
2019-02-09T02:14:13.537Z,75.95
2019-02-09T02:17:04.783Z,76.35
2019-02-09T02:19:36.741Z,75.83
2019-02-09T02:22:18.751Z,76.14
2019-02-09T02:24:51.052Z,76.38
2019-02-09T02:27:21.369Z,76.35
2019-02-09T02:30:22.153Z,75.71
2019-02-09T02:32:55.783Z,75.17
2019-02-09T02:35:26.464Z,74.95
2019-02-09T02:38:08.753Z,75.10
2019-02-09T02:40:50.319Z,74.23
2019-02-09T02:43:40.322Z,74.37
2019-02-09T02:46:11.075Z,72.81
2019-02-09T02:49:03.522Z,71.18
2019-02-09T02:51:33.910Z,70.52
2019-02-09T02:54:04.210Z,70.54
2019-02-09T02:56:54.237Z,70.10
2019-02-09T02:59:24.543Z,70.26
2019-02-09T03:01:54.746Z,70.15
2019-02-09T03:04:40.833Z,70.55
2019-02-09T03:07:11.558Z,70.18
2019-02-09T03:09:41.891Z,70.25
2019-02-09T03:12:14.217Z,70.65
2019-02-09T03:18:06.030Z,70.90
2019-02-09T03:20:36.300Z,71.38
2019-02-09T03:23:06.762Z,71.15
2019-02-09T03:25:58.836Z,71.80
2019-02-09T03:31:36.388Z,72.89
2019-02-09T03:34:19.595Z,71.59
2019-02-09T03:36:49.878Z,71.62
2019-02-09T03:39:20.082Z,71.92
2019-02-09T03:42:01.818Z,72.21
2019-02-09T03:44:43.838Z,73.05
2019-02-09T03:50:00.341Z,73.06
2019-02-09T03:52:42.614Z,73.37
2019-02-09T03:58:34.684Z,73.73
2019-02-09T04:03:47.503Z,74.00
2019-02-09T04:06:50.923Z,74.02
2019-02-09T04:09:14.417Z,74.42
2019-02-09T04:11:56.769Z,74.59
2019-02-09T04:14:27.046Z,75.02
2019-02-09T04:16:57.280Z,74.73
2019-02-09T04:19:46.992Z,74.44
2019-02-09T04:22:17.531Z,74.35
2019-02-09T04:24:47.860Z,74.36
2019-02-09T04:27:29.817Z,74.70
2019-02-09T04:30:14.794Z,74.87
2019-02-09T04:32:45.350Z,74.59
2019-02-09T04:35:15.658Z,74.92
2019-02-09T04:37:57.579Z,74.37
2019-02-09T04:40:39.332Z,74.87
2019-02-09T04:43:09.645Z,75.72
2019-02-09T04:45:40.049Z,74.91
2019-02-09T04:48:29.680Z,74.53
2019-02-09T04:51:14.234Z,74.53
2019-02-09T04:54:12.133Z,75.37
2019-02-09T04:56:44.078Z,74.98
2019-02-09T04:59:15.300Z,74.50
2019-02-09T05:01:45.591Z,75.33
2019-02-09T05:04:38.381Z,75.60
2019-02-09T05:07:08.665Z,75.79
2019-02-09T05:15:11.945Z,77.35
2019-02-09T05:18:01.299Z,78.49
2019-02-09T05:20:31.552Z,78.69
2019-02-09T05:23:20.953Z,79.42
2019-02-09T05:26:10.321Z,79.29
2019-02-09T05:28:42.694Z,79.43
2019-02-09T05:31:32.345Z,80.75
2019-02-09T05:34:02.714Z,81.16
2019-02-09T05:36:52.035Z,82.10
2019-02-09T05:39:39.828Z,82.60
2019-02-09T05:42:10.113Z,83.34
2019-02-09T05:44:40.337Z,83.79
2019-02-09T05:47:23.778Z,84.78
2019-02-09T05:50:06.239Z,85.68
2019-02-09T05:52:36.624Z,85.91
2019-02-09T05:55:08.019Z,86.18
2019-02-09T06:06:27.096Z,87.85
2019-02-09T06:09:09.361Z,88.31
2019-02-09T06:11:39.853Z,88.72
2019-02-09T06:14:31.178Z,88.58
2019-02-09T06:17:01.501Z,88.68
2019-02-09T06:22:53.257Z,88.94
2019-02-09T06:25:25.188Z,89.55
2019-02-09T06:31:16.920Z,90.21
2019-02-09T06:37:13.963Z,90.63
2019-02-09T06:39:46.725Z,91.08
2019-02-09T06:42:36.171Z,92.27
2019-02-09T06:45:08.022Z,93.11
2019-02-09T06:47:51.274Z,93.60
2019-02-09T06:50:40.934Z,93.72
2019-02-09T06:53:11.193Z,94.21
2019-02-09T06:56:00.581Z,94.21
2019-02-09T06:58:47.520Z,94.04
2019-02-09T07:01:23.968Z,94.64
2019-02-09T07:04:15.448Z,95.37
2019-02-09T07:09:44.362Z,96.81
2019-02-09T07:12:14.629Z,96.99
2019-02-09T07:14:44.985Z,98.15
2019-02-09T07:17:27.292Z,98.53
2019-02-09T07:29:13.179Z,100.00
2019-02-09T07:32:05.594Z,99.91
2019-02-09T07:34:48.163Z,99.44
2019-02-09T07:37:30.592Z,98.65
2019-02-09T07:40:01.366Z,97.49
2019-02-09T07:43:13.313Z,96.67
2019-02-09T07:45:45.596Z,96.00
2019-02-09T07:51:20.102Z,93.84
2019-02-09T07:54:43.168Z,93.27
2019-02-09T08:00:25.895Z,92.88
2019-02-09T08:02:51.542Z,92.49
2019-02-09T08:05:22.509Z,92.36
2019-02-09T08:07:54.366Z,92.25
2019-02-09T08:10:46.107Z,92.13
2019-02-09T08:13:35.907Z,92.01
2019-02-09T08:16:19.192Z,92.10
2019-02-09T08:19:01.276Z,92.21
2019-02-09T08:21:36.141Z,92.71
2019-02-09T08:24:27.091Z,92.62
2019-02-09T08:26:57.434Z,92.58
2019-02-09T08:30:06.265Z,92.47
2019-02-09T08:32:47.931Z,92.41
2019-02-09T08:38:14.825Z,92.22
2019-02-09T08:40:53.958Z,91.73
2019-02-09T08:43:35.868Z,91.14
2019-02-09T08:46:06.450Z,90.30
2019-02-09T08:51:35.476Z,87.91
2019-02-09T08:54:05.847Z,87.74
2019-02-09T08:56:36.139Z,87.98
2019-02-09T08:59:18.266Z,88.19
2019-02-09T09:02:02.777Z,88.61
2019-02-09T09:05:12.401Z,88.92
2019-02-09T09:07:42.713Z,89.13
2019-02-09T09:10:15.024Z,89.83
2019-02-09T09:15:40.808Z,90.25
2019-02-09T09:18:12.693Z,90.63
2019-02-09T09:21:03.764Z,90.80
2019-02-09T09:26:42.038Z,91.57
2019-02-09T09:29:13.976Z,92.08
2019-02-09T09:31:45.819Z,92.33
2019-02-09T09:37:15.021Z,92.12
2019-02-09T09:39:56.233Z,92.04
2019-02-09T09:42:29.142Z,91.57
2019-02-09T09:45:12.280Z,91.40
2019-02-09T09:53:39.823Z,91.73
2019-02-09T09:56:10.110Z,91.59
2019-02-09T09:58:40.377Z,91.58
2019-02-09T10:01:30.307Z,91.83
2019-02-09T10:09:52.021Z,91.25
2019-02-09T10:12:42.995Z,91.16
2019-02-09T10:15:15.210Z,91.19
2019-02-09T10:18:04.878Z,90.61
2019-02-09T10:20:39.028Z,90.00
2019-02-09T10:23:28.608Z,88.87
2019-02-09T10:26:12.998Z,87.30
2019-02-09T10:28:36.463Z,87.12
2019-02-09T10:31:44.817Z,87.20
2019-02-09T10:34:17.043Z,87.50
2019-02-09T10:37:25.976Z,87.63
2019-02-09T10:43:20.980Z,86.98
2019-02-09T10:46:02.466Z,87.33
2019-02-09T10:51:37.242Z,88.33
2019-02-09T10:54:07.649Z,88.24
2019-02-09T10:59:59.405Z,86.70
2019-02-09T11:02:33.830Z,83.87
2019-02-09T11:05:17.511Z,82.33
2019-02-09T11:07:48.032Z,81.54
2019-02-09T11:11:03.585Z,79.75
2019-02-09T11:13:52.807Z,80.71
2019-02-09T11:16:23.420Z,79.78
2019-02-09T11:19:05.476Z,79.94
2019-02-09T11:22:06.661Z,80.69
2019-02-09T11:24:37.075Z,80.72
2019-02-09T11:27:10.109Z,80.94
2019-02-09T11:33:02.052Z,83.20
2019-02-09T11:35:46.726Z,84.52
2019-02-09T11:38:29.822Z,85.38
2019-02-09T11:41:20.134Z,86.20
2019-02-09T11:44:08.258Z,86.63
2019-02-09T11:46:43.756Z,87.20
2019-02-09T11:55:22.752Z,89.56
2019-02-09T11:58:02.950Z,89.14
2019-02-09T12:13:55.220Z,84.60
2019-02-09T12:16:31.322Z,83.34
2019-02-09T12:19:28.344Z,82.36
2019-02-09T12:22:15.033Z,81.35
2019-02-09T12:25:09.106Z,79.70
2019-02-09T12:31:23.487Z,80.29
2019-02-09T12:34:15.598Z,79.47
2019-02-09T12:36:58.056Z,78.06
2019-02-09T12:39:40.567Z,77.32
2019-02-09T12:42:11.447Z,76.05
2019-02-09T12:48:21.431Z,74.98
2019-02-09T12:54:02.975Z,76.64
2019-02-09T12:59:55.598Z,78.19
2019-02-09T13:02:25.936Z,78.23
2019-02-09T13:05:30.023Z,78.36
2019-02-09T13:11:14.936Z,78.56
2019-02-09T13:13:46.837Z,79.07
2019-02-09T13:16:17.207Z,79.47
2019-02-09T13:19:06.507Z,79.59
2019-02-09T13:22:14.799Z,79.45
2019-02-09T13:24:48.960Z,79.72
2019-02-09T13:27:31.303Z,80.40
2019-02-09T13:30:03.156Z,80.78
2019-02-09T13:32:54.545Z,80.24
2019-02-09T13:35:43.969Z,80.54
2019-02-09T13:38:14.309Z,80.23
2019-02-09T13:40:46.152Z,80.47
2019-02-09T13:46:37.848Z,81.66
2019-02-09T13:49:27.205Z,82.28
2019-02-09T13:52:08.624Z,83.67
2019-02-09T13:54:39.184Z,85.07
2019-02-09T13:57:31.732Z,86.17
2019-02-09T14:00:17.097Z,88.86
2019-02-09T14:02:47.443Z,91.70
2019-02-09T14:08:16.535Z,93.69
2019-02-09T14:10:51.995Z,93.75
2019-02-09T14:16:28.331Z,92.94
2019-02-09T14:18:58.657Z,92.45
2019-02-09T14:24:46.336Z,91.32
2019-02-09T14:30:02.291Z,89.99
2019-02-09T14:32:32.686Z,89.53
2019-02-09T14:35:04.671Z,88.39
2019-02-09T14:37:34.865Z,88.01
2019-02-09T14:40:05.825Z,87.31
2019-02-09T14:42:55.587Z,87.26
2019-02-09T14:45:28.827Z,87.39
2019-02-09T14:48:20.479Z,88.15
2019-02-09T14:54:25.989Z,89.67
2019-02-09T14:56:56.544Z,90.77
2019-02-09T15:07:02.640Z,92.26
2019-02-09T15:09:53.163Z,93.72
2019-02-09T15:12:28.201Z,94.39
2019-02-09T15:15:04.364Z,94.39
2019-02-09T15:21:02.229Z,94.79
2019-02-09T15:23:54.529Z,94.09
2019-02-09T15:26:44.174Z,94.15
2019-02-09T15:29:14.595Z,94.13
2019-02-09T15:32:15.458Z,94.41
2019-02-09T15:35:03.322Z,94.61
2019-02-09T15:43:59.413Z,94.69
2019-02-09T15:49:52.588Z,95.36
2019-02-09T15:52:25.199Z,95.73
2019-02-09T15:55:17.990Z,96.01
2019-02-09T16:03:54.994Z,98.28
2019-02-09T16:09:49.521Z,98.45
2019-02-09T16:12:59.319Z,98.96
2019-02-09T16:18:26.875Z,99.54
2019-02-09T16:21:41.932Z,100.00
2019-02-09T16:27:19.292Z,100.00
2019-02-09T16:30:24.090Z,100.00
2019-02-09T16:39:44.087Z,100.00
2019-02-09T16:42:21.417Z,100.00
2019-02-09T16:48:22.969Z,100.00
2019-02-09T16:50:55.391Z,100.00
2019-02-09T16:54:06.662Z,100.00
2019-02-09T16:56:47.847Z,100.00
2019-02-09T16:59:18.803Z,100.00
2019-02-09T17:01:49.369Z,100.00
2019-02-09T17:04:20.489Z,100.00
2019-02-09T17:07:08.944Z,100.00
2019-02-09T17:12:44.275Z,100.00
2019-02-09T17:15:33.836Z,100.00
2019-02-09T17:18:06.477Z,100.00
2019-02-09T17:24:17.536Z,100.00
2019-02-09T17:26:47.967Z,100.00
2019-02-09T17:32:00.645Z,100.00
2019-02-09T17:35:09.122Z,100.00
2019-02-09T17:46:57.158Z,98.47
2019-02-09T17:52:57.508Z,98.73
2019-02-09T17:55:28.039Z,98.33
2019-02-09T17:58:12.006Z,98.34
2019-02-09T18:01:22.423Z,98.05
2019-02-09T18:04:33.997Z,98.38
2019-02-09T18:07:42.496Z,97.71
2019-02-09T18:10:21.712Z,97.91
2019-02-09T18:13:11.176Z,98.83
2019-02-09T18:19:03.175Z,98.29
2019-02-09T18:21:33.653Z,98.23
2019-02-09T18:24:06.098Z,98.04
2019-02-09T18:29:51.843Z,97.99
2019-02-09T18:32:22.203Z,97.21
2019-02-09T18:35:12.592Z,96.70
2019-02-09T18:38:28.500Z,95.31
2019-02-09T18:41:37.924Z,94.27
2019-02-09T18:47:10.252Z,94.09
2019-02-09T18:49:43.841Z,94.12
2019-02-09T18:52:24.303Z,94.26
2019-02-09T18:55:16.439Z,94.12
2019-02-09T19:04:16.072Z,94.41
2019-02-09T19:09:44.838Z,94.04
2019-02-09T19:12:15.246Z,94.01
2019-02-09T19:19:14.909Z,94.35
2019-02-09T19:21:57.542Z,94.58
2019-02-09T19:27:26.496Z,95.57
2019-02-09T19:33:56.263Z,95.56
2019-02-09T19:36:22.045Z,95.50
2019-02-09T19:39:31.778Z,95.22
2019-02-09T19:45:21.407Z,95.62
2019-02-09T19:48:04.577Z,94.74
2019-02-09T19:50:46.489Z,95.14
2019-02-09T19:53:41.924Z,95.00
2019-02-09T19:56:45.132Z,94.95
2019-02-09T19:59:35.243Z,95.44
2019-02-09T20:15:38.252Z,94.58
2019-02-09T20:20:57.296Z,94.29
2019-02-09T20:23:53.123Z,94.44
2019-02-09T20:26:44.541Z,94.76
2019-02-09T20:32:15.934Z,95.29
2019-02-09T20:38:08.230Z,95.22
2019-02-09T20:40:57.388Z,95.37
2019-02-09T20:47:08.851Z,95.27
2019-02-09T20:49:46.371Z,95.87
2019-02-09T20:55:39.750Z,95.75
2019-02-09T21:01:23.494Z,95.92
2019-02-09T21:04:32.460Z,96.15
2019-02-09T21:07:03.721Z,95.82
2019-02-09T21:13:05.017Z,96.04
2019-02-09T21:19:07.579Z,96.34
2019-02-09T21:24:56.956Z,96.85
2019-02-09T21:27:32.098Z,97.35
2019-02-09T21:30:23.700Z,97.83
2019-02-09T21:36:07.538Z,98.24
2019-02-09T21:39:02.160Z,98.61
2019-02-09T21:41:39.748Z,99.53
2019-02-09T21:44:29.789Z,100.00
2019-02-09T21:50:44.481Z,100.00
2019-02-09T21:53:36.632Z,100.00
2019-02-09T21:56:45.383Z,100.00
2019-02-09T21:59:57.087Z,100.00
2019-02-09T22:06:12.088Z,100.00
2019-02-09T22:09:13.993Z,100.00
2019-02-09T22:14:35.228Z,100.00
2019-02-09T22:17:20.617Z,100.00
2019-02-09T22:19:51.193Z,100.00
2019-02-09T22:22:21.605Z,100.00
2019-02-09T22:25:06.763Z,100.00
2019-02-09T22:30:45.689Z,100.00
2019-02-09T22:33:48.734Z,100.00
2019-02-09T22:39:19.349Z,99.93
2019-02-09T22:41:52.216Z,99.15
2019-02-09T22:44:24.074Z,98.89
2019-02-09T22:50:22.018Z,98.25
2019-02-09T22:53:11.405Z,98.32
2019-02-09T22:55:41.810Z,97.59
2019-02-09T23:02:04.172Z,97.15
2019-02-09T23:04:58.050Z,97.39
2019-02-09T23:08:09.391Z,96.88
2019-02-09T23:10:41.313Z,96.75
2019-02-09T23:16:45.266Z,97.17
2019-02-09T23:22:37.656Z,96.80
2019-02-09T23:25:30.745Z,97.08
2019-02-09T23:28:20.491Z,97.03
2019-02-09T23:30:50.865Z,97.00
2019-02-09T23:34:06.956Z,97.30
2019-02-09T23:36:53.234Z,97.18
2019-02-09T23:39:16.414Z,97.29
2019-02-09T23:42:03.312Z,97.81
2019-02-09T23:44:52.732Z,97.88
2019-02-09T23:47:23.132Z,98.47
2019-02-09T23:49:55.042Z,97.97
2019-02-09T23:52:46.005Z,97.96
2019-02-09T23:55:30.120Z,98.01
